Time;durP1;ratioP1;P1;durP2;ratioP2;P2;SDS_P1;SDS_P2;PMS_P1;PMS_P2;Temp;Humidity;BMP_temperature;BMP_pressure;BME280_temperature;BME280_humidity;BME280_pressure;Samples;Min_cycle;Max_cycle;Signal;HPM_P1;HPM_P2
2024/02/06 00:00:45;;;;;;;18.02;8.50;;;;;;;10.17;68.55;97682.53;4986711;28;20026;-76
2024/02/06 00:03:11;;;;;;;17.40;8.50;;;;;;;9.96;72.34;97696.22;4978473;28;20067;-77
2024/02/06 00:05:36;;;;;;;16.88;8.60;;;;;;;9.75;74.21;97688.47;4977403;28;20049;-76
2024/02/06 00:08:02;;;;;;;17.88;8.48;;;;;;;9.60;76.97;97689.34;4993506;28;20039;-76
2024/02/06 00:10:27;;;;;;;19.63;8.57;;;;;;;9.41;78.13;97696.66;4996742;28;20060;-76
2024/02/06 00:12:53;;;;;;;22.75;9.90;;;;;;;9.27;83.18;97713.41;4999731;28;20508;-76
2024/02/06 00:15:18;;;;;;;17.40;8.98;;;;;;;9.01;86.14;97710.44;5028140;28;20479;-76
2024/02/06 00:17:44;;;;;;;18.27;9.50;;;;;;;8.80;89.21;97685.72;4991285;28;20030;-76
2024/02/06 00:20:10;;;;;;;30.00;10.50;;;;;;;8.71;90.37;97695.06;4977202;28;20108;-77
2024/02/06 00:22:35;;;;;;;21.50;8.90;;;;;;;8.79;89.24;97688.50;4993516;28;20523;-76
2024/02/06 00:25:01;;;;;;;13.77;6.95;;;;;;;9.04;80.61;97678.25;4991619;28;20041;-75
2024/02/06 00:27:26;;;;;;;20.13;8.05;;;;;;;9.41;78.91;97698.47;5000210;28;20327;-76
2024/02/06 00:29:54;;;;;;;19.98;8.90;;;;;;;9.08;86.11;97709.13;5000153;28;20040;-76
2024/02/06 00:32:21;;;;;;;17.67;8.88;;;;;;;8.87;88.24;97703.13;4990535;28;20410;-77
2024/02/06 00:34:47;;;;;;;16.90;7.63;;;;;;;8.69;91.55;97699.66;4984761;28;20029;-77
2024/02/06 00:37:13;;;;;;;15.60;7.20;;;;;;;8.54;91.46;97699.56;4992376;28;20029;-77
2024/02/06 00:39:39;;;;;;;11.45;6.45;;;;;;;8.54;90.63;97700.44;4997449;28;20494;-76
2024/02/06 00:42:04;;;;;;;12.52;5.45;;;;;;;8.62;88.74;97708.03;4980676;28;20417;-77
2024/02/06 00:44:30;;;;;;;12.98;6.57;;;;;;;8.79;88.89;97709.84;4988383;28;20545;-75
2024/02/06 00:46:55;;;;;;;11.60;5.82;;;;;;;8.78;86.94;97714.28;5004939;28;20025;-76
2024/02/06 00:49:21;;;;;;;6.80;3.67;;;;;;;9.09;79.73;97701.06;4996624;28;20125;-75
2024/02/06 00:51:46;;;;;;;14.77;5.28;;;;;;;9.37;77.44;97691.56;5009910;28;20079;-76
2024/02/06 00:54:12;;;;;;;10.35;5.57;;;;;;;9.47;80.24;97708.81;4992643;28;20106;-76
2024/02/06 00:56:40;;;;;;;14.88;5.82;;;;;;;9.27;80.79;97708.09;4982846;28;20037;-76
2024/02/06 00:59:05;;;;;;;14.00;6.18;;;;;;;9.37;78.35;97697.78;4999871;28;20429;-77
2024/02/06 01:01:31;;;;;;;12.15;6.18;;;;;;;9.52;76.39;97712.94;5008188;28;20053;-76
2024/02/06 01:03:56;;;;;;;9.95;5.28;;;;;;;9.57;74.24;97704.66;4980462;28;20045;-75
2024/02/06 01:06:22;;;;;;;15.77;7.15;;;;;;;9.50;76.11;97706.84;4980195;28;20032;-76
2024/02/06 01:08:48;;;;;;;10.88;5.35;;;;;;;9.38;75.97;97696.84;5025150;28;20033;-76
2024/02/06 01:11:14;;;;;;;17.30;7.00;;;;;;;9.41;76.25;97719.81;4999833;28;20120;-77
2024/02/06 01:13:39;;;;;;;12.77;4.93;;;;;;;9.54;69.72;97705.69;4996086;28;20624;-77
2024/02/06 01:16:07;;;;;;;10.65;5.45;;;;;;;9.65;71.94;97711.31;4986864;28;20562;-76
2024/02/06 01:18:33;;;;;;;11.48;5.55;;;;;;;9.60;73.07;97704.50;4998856;28;20061;-77
2024/02/06 01:20:58;;;;;;;13.60;5.95;;;;;;;9.56;73.63;97713.63;4993467;28;20544;-76
2024/02/06 01:23:24;;;;;;;13.82;6.30;;;;;;;9.50;74.28;97714.84;4999178;28;20471;-77
2024/02/06 01:25:49;;;;;;;14.38;6.85;;;;;;;9.40;78.49;97723.44;4999177;28;20025;-76
2024/02/06 01:28:15;;;;;;;14.25;6.90;;;;;;;9.25;80.22;97726.00;5001138;28;20108;-77
2024/02/06 01:30:40;;;;;;;10.02;5.30;;;;;;;9.07;79.80;97715.44;4982590;28;20490;-76
2024/02/06 01:33:06;;;;;;;13.23;5.72;;;;;;;9.06;79.74;97713.69;4999090;28;20025;-76
2024/02/06 01:35:32;;;;;;;9.65;3.70;;;;;;;9.06;73.68;97690.56;4989057;28;20034;-76
2024/02/06 01:37:57;;;;;;;8.15;4.95;;;;;;;9.22;77.11;97703.94;4987461;28;20026;-76
2024/02/06 01:40:23;;;;;;;12.80;5.45;;;;;;;9.06;81.33;97717.25;4986754;28;20029;-76
2024/02/06 01:42:49;;;;;;;11.23;5.10;;;;;;;8.85;81.66;97710.38;5007376;28;20063;-77
2024/02/06 01:45:15;;;;;;;7.68;3.17;;;;;;;8.85;74.54;97694.38;4998987;28;20060;-77
2024/02/06 01:47:42;;;;;;;8.57;5.00;;;;;;;9.13;70.80;97707.97;4997502;28;20036;-77
2024/02/06 01:50:07;;;;;;;7.95;4.75;;;;;;;9.12;75.22;97708.91;4993654;28;20521;-75
2024/02/06 01:52:33;;;;;;;11.85;4.63;;;;;;;8.93;80.00;97713.50;4990526;28;20076;-78
2024/02/06 01:54:59;;;;;;;6.22;4.13;;;;;;;8.87;80.35;97720.94;4990536;28;20052;-76
2024/02/06 01:57:32;;;;;;;7.40;4.00;;;;;;;8.70;80.77;97695.19;4991840;28;20033;-76
2024/02/06 01:59:58;;;;;;;5.90;3.47;;;;;;;8.74;75.09;97702.06;5014630;28;20025;-77
2024/02/06 02:02:23;;;;;;;6.93;3.90;;;;;;;8.91;75.24;97696.72;4998518;28;20056;-77
2024/02/06 02:04:49;;;;;;;8.52;3.95;;;;;;;8.77;74.13;97691.22;4998229;28;20040;-75
2024/02/06 02:07:15;;;;;;;7.15;3.50;;;;;;;8.95;71.57;97706.25;4998425;28;20029;-76
2024/02/06 02:09:41;;;;;;;9.77;4.45;;;;;;;9.04;72.63;97707.59;5014115;28;20025;-76
2024/02/06 02:12:07;;;;;;;13.98;6.20;;;;;;;8.87;78.50;97708.47;4998992;28;20030;-76
2024/02/06 02:14:32;;;;;;;9.20;4.60;;;;;;;8.60;80.98;97710.78;4982995;28;20091;-76
2024/02/06 02:16:58;;;;;;;5.05;2.30;;;;;;;8.61;70.57;97687.66;5002962;28;20042;-75
2024/02/06 02:19:24;;;;;;;9.93;5.93;;;;;;;8.90;69.36;97704.78;5003167;28;20036;-76
2024/02/06 02:21:49;;;;;;;12.30;6.60;;;;;;;8.73;81.45;97710.16;5002964;28;20108;-76
2024/02/06 02:24:15;;;;;;;21.38;11.75;;;;;;;8.49;87.09;97704.28;4979321;28;20033;-76
2024/02/06 02:26:41;;;;;;;57.55;27.38;;;;;;;8.36;90.76;97721.84;4978551;28;20037;-77
2024/02/06 02:29:07;;;;;;;23.85;9.82;;;;;;;8.15;91.23;97723.75;4994965;28;20105;-77
2024/02/06 02:31:34;;;;;;;20.55;9.25;;;;;;;7.92;95.36;97716.88;4978750;28;20030;-77
2024/02/06 02:33:59;;;;;;;20.67;10.60;;;;;;;7.72;98.38;97708.97;4978494;28;20024;-75
2024/02/06 02:36:25;;;;;;;20.02;10.50;;;;;;;7.64;98.92;97706.69;4994593;28;20109;-75
2024/02/06 02:38:51;;;;;;;17.40;8.65;;;;;;;7.49;100.00;97717.19;4979171;28;20091;-76
2024/02/06 02:41:16;;;;;;;17.73;7.72;;;;;;;7.39;100.00;97726.53;4985317;28;20091;-76
2024/02/06 02:43:42;;;;;;;14.73;7.72;;;;;;;7.31;100.00;97718.91;4978286;28;20508;-76
2024/02/06 02:46:07;;;;;;;20.73;9.10;;;;;;;7.11;100.00;97713.63;4994425;28;20026;-76
2024/02/06 02:48:34;;;;;;;18.15;8.82;;;;;;;7.11;100.00;97728.75;4993884;28;20497;-76
2024/02/06 02:51:00;;;;;;;16.30;7.53;;;;;;;7.04;100.00;97728.16;4994243;28;20390;-77
2024/02/06 02:53:25;;;;;;;14.80;6.22;;;;;;;6.88;100.00;97733.28;4983361;28;20043;-76
2024/02/06 02:55:51;;;;;;;14.40;5.95;;;;;;;6.76;100.00;97740.94;5014109;28;20555;-75
2024/02/06 02:58:17;;;;;;;14.70;6.95;;;;;;;6.61;100.00;97745.13;4997431;28;20030;-76
2024/02/06 03:00:42;;;;;;;14.23;6.85;;;;;;;6.51;100.00;97735.81;4997314;28;20022;-76
2024/02/06 03:03:08;;;;;;;17.73;7.68;;;;;;;6.41;100.00;97740.66;5013939;28;20032;-76
2024/02/06 03:05:33;;;;;;;17.25;6.60;;;;;;;6.42;100.00;97750.38;4983432;28;20066;-76
2024/02/06 03:07:59;;;;;;;14.52;6.55;;;;;;;6.36;100.00;97755.94;4985794;28;20120;-76
2024/02/06 03:10:25;;;;;;;17.25;7.45;;;;;;;6.40;100.00;97769.94;4994143;28;20038;-76
2024/02/06 03:12:50;;;;;;;17.15;7.85;;;;;;;6.32;100.00;97761.44;4986100;28;20029;-77
2024/02/06 03:15:16;;;;;;;14.70;6.28;;;;;;;6.27;100.00;97766.94;4997232;28;20021;-76
2024/02/06 03:17:41;;;;;;;17.95;6.65;;;;;;;6.31;100.00;97778.28;4982431;28;20508;-74
2024/02/06 03:20:08;;;;;;;13.75;6.55;;;;;;;6.30;100.00;97773.91;4979655;28;20401;-75
2024/02/06 03:22:33;;;;;;;17.40;6.63;;;;;;;6.24;100.00;97782.16;4991699;28;20513;-76
2024/02/06 03:24:59;;;;;;;25.33;9.10;;;;;;;6.20;100.00;97783.19;4994981;28;20030;-75
2024/02/06 03:27:25;;;;;;;20.23;8.95;;;;;;;6.20;100.00;97764.59;4997603;28;20021;-76
2024/02/06 03:29:52;;;;;;;21.75;9.30;;;;;;;6.20;100.00;97777.88;4997519;28;20034;-76
2024/02/06 03:32:18;;;;;;;19.40;8.38;;;;;;;6.20;100.00;97775.22;4996853;28;20025;-76
2024/02/06 03:34:43;;;;;;;17.65;7.97;;;;;;;6.28;100.00;97775.75;5013784;28;20020;-75
2024/02/06 03:37:09;;;;;;;21.60;8.43;;;;;;;6.22;100.00;97778.66;5013562;28;20021;-76
2024/02/06 03:39:34;;;;;;;21.05;7.70;;;;;;;6.14;100.00;97775.47;4992031;28;20029;-76
2024/02/06 03:42:00;;;;;;;18.65;8.98;;;;;;;6.07;100.00;97779.28;4985438;28;20125;-77
2024/02/06 03:44:26;;;;;;;22.70;8.98;;;;;;;5.97;100.00;97776.13;4977790;28;20034;-77
2024/02/06 03:46:52;;;;;;;19.35;7.70;;;;;;;6.00;100.00;97789.28;4977629;28;20040;-76
2024/02/06 03:49:17;;;;;;;20.30;8.77;;;;;;;5.91;100.00;97803.81;5004150;28;20069;-75
2024/02/06 03:51:43;;;;;;;14.70;7.35;;;;;;;5.70;100.00;97793.13;5005183;28;20056;-77
2024/02/06 03:54:08;;;;;;;21.27;7.50;;;;;;;5.58;100.00;97794.47;4996724;28;20040;-76
2024/02/06 03:56:34;;;;;;;13.70;7.22;;;;;;;5.54;100.00;97792.00;4984160;28;20035;-75
2024/02/06 03:59:00;;;;;;;15.45;7.50;;;;;;;5.51;100.00;97792.97;4977359;28;20022;-76
2024/02/06 04:01:25;;;;;;;21.35;8.38;;;;;;;5.48;100.00;97803.69;4998917;28;20136;-76
2024/02/06 04:03:51;;;;;;;31.60;16.95;;;;;;;5.34;100.00;97790.09;5000665;28;20040;-76
2024/02/06 04:06:19;;;;;;;25.10;11.52;;;;;;;5.37;100.00;97795.28;4998341;28;20476;-75
2024/02/06 04:08:44;;;;;;;24.08;11.50;;;;;;;5.42;100.00;97806.56;4986834;28;20029;-76
2024/02/06 04:11:13;;;;;;;28.85;11.60;;;;;;;5.42;100.00;97804.78;5016745;28;20083;-76
2024/02/06 04:13:39;;;;;;;26.88;11.90;;;;;;;5.40;100.00;97813.72;5000839;28;20353;-76
2024/02/06 04:16:06;;;;;;;25.52;11.40;;;;;;;5.38;100.00;97813.78;5000462;28;20029;-75
2024/02/06 04:18:34;;;;;;;29.65;13.93;;;;;;;5.33;100.00;97804.25;5000458;28;20029;-76
2024/02/06 04:21:00;;;;;;;35.38;15.07;;;;;;;5.33;100.00;97805.13;5016879;28;20027;-76
2024/02/06 04:23:25;;;;;;;31.40;14.77;;;;;;;5.36;100.00;97809.44;4997443;28;20112;-75
2024/02/06 04:25:51;;;;;;;44.95;16.45;;;;;;;5.35;100.00;97805.94;4980872;28;20029;-78
2024/02/06 04:28:17;;;;;;;58.28;21.60;;;;;;;5.32;100.00;97813.16;4998242;28;20460;-76
2024/02/06 04:30:42;;;;;;;40.90;13.10;;;;;;;5.24;100.00;97813.44;5000093;28;20030;-76
2024/02/06 04:33:11;;;;;;;38.67;14.18;;;;;;;5.27;100.00;97826.56;5000128;28;20025;-77
2024/02/06 04:35:36;;;;;;;38.67;12.57;;;;;;;5.15;100.00;97804.94;4996477;28;20026;-76
2024/02/06 04:38:03;;;;;;;26.63;11.00;;;;;;;5.08;100.00;97814.03;5004948;28;20029;-76
2024/02/06 04:40:28;;;;;;;38.60;13.00;;;;;;;5.01;100.00;97818.72;4980373;28;20026;-77
2024/02/06 04:42:55;;;;;;;59.92;20.40;;;;;;;4.85;100.00;97810.44;4980478;28;20033;-75
2024/02/06 04:45:21;;;;;;;42.95;14.30;;;;;;;4.74;100.00;97798.44;4980659;28;20037;-77
2024/02/06 04:47:47;;;;;;;30.35;11.73;;;;;;;4.71;100.00;97802.06;4980447;28;20029;-76
2024/02/06 04:50:13;;;;;;;30.58;12.10;;;;;;;4.79;100.00;97818.59;4996592;28;20410;-76
2024/02/06 04:52:38;;;;;;;33.80;11.90;;;;;;;4.78;100.00;97823.94;4999768;28;20405;-76
2024/02/06 04:55:04;;;;;;;29.60;11.75;;;;;;;4.67;100.00;97823.44;4999750;28;20056;-77
2024/02/06 04:57:30;;;;;;;40.70;16.92;;;;;;;4.73;100.00;97825.88;5013650;28;20021;-76
2024/02/06 04:59:56;;;;;;;40.90;15.88;;;;;;;4.76;100.00;97817.84;4997905;28;20030;-78
2024/02/06 05:02:22;;;;;;;33.85;15.13;;;;;;;4.74;100.00;97824.94;4980066;28;20541;-77
2024/02/06 05:04:48;;;;;;;42.50;16.92;;;;;;;4.66;100.00;97827.00;5000998;28;20028;-76
2024/02/06 05:07:14;;;;;;;39.10;16.40;;;;;;;4.67;100.00;97826.97;4999627;28;20041;-76
2024/02/06 05:09:40;;;;;;;52.83;18.05;;;;;;;4.65;100.00;97831.44;4999387;28;20036;-76
2024/02/06 05:12:06;;;;;;;42.65;17.02;;;;;;;4.59;100.00;97836.94;4998872;28;20504;-76
2024/02/06 05:14:32;;;;;;;47.85;18.85;;;;;;;4.61;100.00;97840.41;4990445;28;20030;-77
2024/02/06 05:16:58;;;;;;;47.60;19.15;;;;;;;4.58;100.00;97839.66;4985402;28;20040;-78
2024/02/06 05:19:24;;;;;;;39.53;16.83;;;;;;;4.52;100.00;97839.84;4998661;28;20382;-77
2024/02/06 05:21:50;;;;;;;31.42;12.77;;;;;;;4.53;100.00;97826.53;4979752;28;20033;-78
2024/02/06 05:24:16;;;;;;;38.08;14.75;;;;;;;4.47;100.00;97834.69;4979495;28;20034;-73
2024/02/06 05:26:42;;;;;;;42.47;15.02;;;;;;;4.41;100.00;97832.25;5004951;28;20029;-77
2024/02/06 05:29:08;;;;;;;38.33;14.80;;;;;;;4.42;100.00;97831.34;4987650;28;20049;-78
2024/02/06 05:31:34;;;;;;;33.72;12.30;;;;;;;4.32;100.00;97841.38;5008706;28;20041;-74
2024/02/06 05:33:59;;;;;;;27.13;11.25;;;;;;;4.31;100.00;97841.41;5006063;28;20036;-77
2024/02/06 05:36:25;;;;;;;33.28;10.43;;;;;;;4.30;100.00;97840.56;5030632;28;20033;-77
2024/02/06 05:38:51;;;;;;;32.03;9.48;;;;;;;4.25;100.00;97844.25;4983187;28;20061;-77
2024/02/06 05:41:19;;;;;;;21.48;9.65;;;;;;;4.23;100.00;97843.44;5020811;28;20029;-77
2024/02/06 05:43:45;;;;;;;34.15;12.45;;;;;;;4.28;100.00;97842.38;4991057;28;20033;-76
2024/02/06 05:46:11;;;;;;;37.78;14.32;;;;;;;4.24;100.00;97837.25;4992139;28;20050;-76
2024/02/06 05:48:36;;;;;;;41.85;18.60;;;;;;;4.23;100.00;97833.72;5003071;28;20068;-76
2024/02/06 05:51:06;;;;;;;40.92;17.65;;;;;;;4.31;100.00;97846.69;4997064;28;20045;-77
2024/02/06 05:53:33;;;;;;;40.58;19.00;;;;;;;4.41;100.00;97848.16;4999412;28;20468;-80
2024/02/06 05:56:08;;;;;;;36.17;16.70;;;;;;;4.40;100.00;97835.81;4998574;28;20053;-76
2024/02/06 05:58:42;;;;;;;52.97;19.92;;;;;;;4.52;100.00;97830.13;4990593;28;20033;-80
2024/02/06 06:01:08;;;;;;;54.90;23.02;;;;;;;4.72;100.00;97855.94;4998866;28;20052;-77
2024/02/06 06:03:34;;;;;;;57.17;23.58;;;;;;;4.81;100.00;97850.31;5014745;28;20029;-76
2024/02/06 06:06:00;;;;;;;57.88;27.23;;;;;;;4.84;100.00;97848.44;4995984;28;20029;-76
2024/02/06 06:08:25;;;;;;;63.10;27.13;;;;;;;4.92;100.00;97842.88;4981251;28;20029;-76
2024/02/06 06:10:51;;;;;;;73.82;30.27;;;;;;;4.98;100.00;97845.31;4996494;28;20026;-76
2024/02/06 06:13:17;;;;;;;62.80;27.73;;;;;;;5.10;100.00;97855.50;4986820;28;20030;-71
2024/02/06 06:15:42;;;;;;;67.97;19.90;;;;;;;5.11;100.00;97845.72;4982699;28;20124;-72
2024/02/06 06:18:08;;;;;;;58.95;19.70;;;;;;;5.16;100.00;97849.97;4993596;28;20041;-71
2024/02/06 06:20:33;;;;;;;69.05;19.98;;;;;;;5.16;100.00;97849.09;5009381;28;20501;-71
2024/02/06 06:22:59;;;;;;;81.10;23.60;;;;;;;5.23;100.00;97851.47;4998931;28;20066;-71
2024/02/06 06:25:25;;;;;;;57.42;21.63;;;;;;;5.12;100.00;97842.16;5002272;28;20030;-70
2024/02/06 06:27:52;;;;;;;54.67;20.40;;;;;;;5.28;100.00;97852.19;4994990;28;20033;-71
2024/02/06 06:30:18;;;;;;;68.97;23.65;;;;;;;5.40;100.00;97851.72;5011181;28;20450;-72
2024/02/06 06:32:43;;;;;;;85.07;25.88;;;;;;;5.71;100.00;97854.09;4993885;28;20057;-71
2024/02/06 06:35:09;;;;;;;122.10;36.55;;;;;;;7.12;100.00;97847.50;5010125;28;20497;-70
2024/02/06 06:37:35;;;;;;;88.28;26.88;;;;;;;8.86;100.00;97824.09;4993969;28;20038;-70
2024/02/06 06:40:04;;;;;;;61.03;21.17;;;;;;;10.45;85.51;97798.56;4979624;28;20056;-73
2024/02/06 06:42:31;;;;;;;76.28;22.77;;;;;;;11.71;71.39;97786.47;4992431;28;20478;-72
2024/02/06 06:44:57;;;;;;;59.38;21.15;;;;;;;13.00;63.17;97768.97;5001247;28;20029;-73
2024/02/06 06:47:23;;;;;;;60.65;19.92;;;;;;;14.33;55.60;97749.69;4999054;28;20021;-70
2024/02/06 06:49:49;;;;;;;44.80;16.85;;;;;;;14.02;56.09;97759.97;5010394;28;20083;-69
2024/02/06 06:52:14;;;;;;;36.70;14.07;;;;;;;14.52;52.68;97732.03;4997076;28;20500;-70
2024/02/06 06:54:40;;;;;;;32.63;14.30;;;;;;;15.02;51.86;97738.09;5008769;28;20026;-70
2024/02/06 06:57:06;;;;;;;54.47;17.08;;;;;;;14.65;50.93;97723.88;4985059;28;20040;-71
2024/02/06 06:59:32;;;;;;;47.35;16.33;;;;;;;15.17;49.86;97731.53;5011709;28;20021;-71
2024/02/06 07:01:58;;;;;;;30.02;12.43;;;;;;;15.82;47.67;97728.22;4980704;28;20103;-70
2024/02/06 07:04:26;;;;;;;42.63;14.27;;;;;;;16.55;45.89;97715.03;4997645;28;20112;-71
2024/02/06 07:06:52;;;;;;;64.40;27.02;;;;;;;16.63;45.36;97713.38;4982367;28;20033;-71
2024/02/06 07:09:18;;;;;;;116.28;31.42;;;;;;;17.05;44.85;97711.59;5009396;28;20026;-70
2024/02/06 07:11:44;;;;;;;81.55;26.65;;;;;;;17.50;44.04;97706.78;5000557;28;20029;-71
2024/02/06 07:14:10;;;;;;;285.65;85.40;;;;;;;18.29;43.12;97695.16;5017121;28;20029;-70
2024/02/06 07:16:36;;;;;;;137.02;43.78;;;;;;;18.49;41.72;97697.91;5007423;28;20101;-72
2024/02/06 07:19:01;;;;;;;88.07;30.55;;;;;;;19.17;40.47;97703.22;4998456;28;20109;-71
2024/02/06 07:21:27;;;;;;;86.53;28.08;;;;;;;18.90;40.44;97693.09;5001433;28;20049;-72
2024/02/06 07:23:53;;;;;;;84.57;29.90;;;;;;;19.44;40.22;97689.78;4988526;28;20167;-72
2024/02/06 07:26:19;;;;;;;64.43;28.13;;;;;;;19.43;39.95;97692.66;4999788;28;20021;-73
2024/02/06 07:28:45;;;;;;;59.33;26.40;;;;;;;19.71;39.53;97699.00;4993373;28;20030;-70
2024/02/06 07:31:11;;;;;;;61.03;25.25;;;;;;;20.30;38.06;97682.34;4984658;28;20034;-70
2024/02/06 07:33:36;;;;;;;61.28;26.48;;;;;;;20.83;37.71;97690.53;4999804;28;20041;-71
2024/02/06 07:36:02;;;;;;;62.97;23.90;;;;;;;20.72;37.20;97694.34;5003848;28;20108;-70
2024/02/06 07:38:28;;;;;;;68.45;29.10;;;;;;;21.22;37.84;97691.97;5016696;28;20362;-71
2024/02/06 07:40:53;;;;;;;62.60;29.33;;;;;;;21.86;35.96;97669.75;5000127;28;20024;-70
2024/02/06 07:43:19;;;;;;;73.32;31.27;;;;;;;22.42;35.14;97671.91;4983798;28;20044;-70
2024/02/06 07:45:45;;;;;;;141.98;56.78;;;;;;;23.04;35.35;97662.31;5017221;28;20110;-71
2024/02/06 07:48:10;;;;;;;96.72;40.83;;;;;;;23.60;33.80;97658.72;5014957;28;20025;-71
2024/02/06 07:50:36;;;;;;;67.10;31.25;;;;;;;23.46;33.40;97653.97;4998082;28;20397;-71
2024/02/06 07:53:01;;;;;;;69.47;30.80;;;;;;;23.77;33.79;97655.97;5010756;28;20044;-70
2024/02/06 07:55:29;;;;;;;61.85;29.70;;;;;;;23.81;33.77;97646.41;4991448;28;20116;-70
2024/02/06 07:57:55;;;;;;;82.15;36.47;;;;;;;24.37;33.60;97651.66;5027498;28;20029;-71
2024/02/06 08:00:21;;;;;;;126.15;41.65;;;;;;;25.20;32.85;97658.16;4991884;28;20549;-70
2024/02/06 08:02:46;;;;;;;119.50;35.97;;;;;;;25.98;31.46;97645.94;4996817;28;20045;-71
2024/02/06 08:05:12;;;;;;;50.03;18.75;;;;;;;25.69;30.63;97638.53;4996783;28;20183;-71
2024/02/06 08:07:41;;;;;;;28.63;12.23;;;;;;;25.47;30.73;97653.97;5013624;28;20411;-71
2024/02/06 08:10:08;;;;;;;35.58;13.55;;;;;;;25.88;30.41;97640.75;5010260;28;20520;-70
2024/02/06 08:12:33;;;;;;;88.60;33.10;;;;;;;26.27;30.84;97646.81;4999108;28;20155;-70
2024/02/06 08:15:01;;;;;;;71.95;25.77;;;;;;;26.85;29.65;97643.13;5001555;28;20057;-70
2024/02/06 08:17:27;;;;;;;59.20;21.23;;;;;;;27.40;28.44;97641.53;5016427;28;20486;-70
2024/02/06 08:19:52;;;;;;;28.13;8.57;;;;;;;27.45;27.95;97636.31;5014759;28;20028;-71
2024/02/06 08:22:18;;;;;;;28.42;8.30;;;;;;;27.71;28.09;97627.44;4999569;28;20410;-70
2024/02/06 08:24:44;;;;;;;18.88;6.30;;;;;;;27.69;27.88;97635.88;4996553;28;20072;-70
2024/02/06 08:27:09;;;;;;;11.00;4.55;;;;;;;27.47;26.96;97639.75;4995489;28;20550;-70
2024/02/06 08:29:35;;;;;;;19.38;4.95;;;;;;;27.57;27.23;97631.13;4997229;28;20466;-71
2024/02/06 08:32:01;;;;;;;16.13;4.05;;;;;;;27.89;26.64;97625.03;4993775;28;20033;-74
2024/02/06 08:34:26;;;;;;;11.38;4.03;;;;;;;28.45;26.45;97623.88;4983140;28;20509;-71
2024/02/06 08:36:52;;;;;;;43.78;9.60;;;;;;;28.30;26.26;97608.56;4995089;28;20040;-70
2024/02/06 08:39:19;;;;;;;42.50;9.00;;;;;;;28.76;26.57;97625.28;4995462;28;20060;-70
2024/02/06 08:41:45;;;;;;;7.47;3.78;;;;;;;28.84;25.27;97616.84;4996372;28;20111;-70
2024/02/06 08:44:11;;;;;;;11.23;4.10;;;;;;;28.78;25.39;97612.16;5010921;28;20071;-71
2024/02/06 08:46:37;;;;;;;16.77;4.60;;;;;;;28.78;25.95;97614.91;5032365;28;20037;-70
2024/02/06 08:49:03;;;;;;;9.80;3.50;;;;;;;29.53;23.94;97611.88;4999151;28;20148;-70
2024/02/06 08:51:28;;;;;;;12.38;3.60;;;;;;;29.11;24.72;97612.22;4999058;28;20164;-71
2024/02/06 08:53:55;;;;;;;7.07;3.33;;;;;;;29.57;24.13;97611.22;5015575;28;20124;-72
2024/02/06 08:56:21;;;;;;;19.00;4.93;;;;;;;28.95;24.77;97608.78;4999665;28;20501;-70
2024/02/06 08:58:46;;;;;;;14.55;7.32;;;;;;;29.49;24.34;97610.59;4995640;28;20068;-70
2024/02/06 09:01:12;;;;;;;8.30;3.60;;;;;;;29.57;23.67;97605.69;4979290;28;20421;-70
2024/02/06 09:03:37;;;;;;;10.98;3.55;;;;;;;29.54;23.83;97610.78;5021358;28;20038;-72
2024/02/06 09:06:03;;;;;;;25.05;4.00;;;;;;;29.11;24.15;97612.22;4995755;28;20028;-70
2024/02/06 09:08:29;;;;;;;7.70;3.38;;;;;;;30.07;23.44;97612.44;4979276;28;20034;-71
2024/02/06 09:10:55;;;;;;;4.88;3.40;;;;;;;30.66;22.78;97610.56;5016646;28;20078;-73
2024/02/06 09:13:22;;;;;;;8.45;4.57;;;;;;;30.64;22.52;97608.84;5008136;28;20069;-71
2024/02/06 09:15:48;;;;;;;37.95;5.45;;;;;;;31.24;23.05;97603.00;4987495;28;20057;-71
2024/02/06 09:18:13;;;;;;;16.27;4.90;;;;;;;31.48;22.34;97608.53;5001463;28;20456;-71
2024/02/06 09:20:39;;;;;;;20.92;5.28;;;;;;;31.96;22.59;97599.63;5032177;28;20025;-71
2024/02/06 09:23:05;;;;;;;38.47;6.15;;;;;;;32.45;21.83;97601.44;4998572;28;20087;-71
2024/02/06 09:25:30;;;;;;;7.72;4.28;;;;;;;32.17;21.48;97593.66;4990293;28;20408;-70
2024/02/06 09:27:56;;;;;;;11.50;2.88;;;;;;;32.53;20.42;97582.56;5005359;28;20056;-71
2024/02/06 09:30:22;;;;;;;28.85;4.85;;;;;;;32.56;21.24;97597.91;5014905;28;20040;-71
2024/02/06 09:32:48;;;;;;;4.85;3.10;;;;;;;33.10;20.43;97580.34;5010809;28;20022;-71
2024/02/06 09:35:14;;;;;;;8.25;3.20;;;;;;;31.75;21.39;97564.91;4983273;28;20060;-70
2024/02/06 09:37:39;;;;;;;10.77;3.33;;;;;;;31.67;21.02;97574.34;5014796;28;20092;-71
2024/02/06 09:40:06;;;;;;;5.40;3.30;;;;;;;31.78;21.14;97558.91;4997677;28;20060;-70
2024/02/06 09:42:32;;;;;;;5.90;2.40;;;;;;;31.86;20.16;97557.78;4998505;28;20053;-71
2024/02/06 09:44:59;;;;;;;4.22;2.17;;;;;;;31.55;20.20;97550.41;5014481;28;20408;-69
2024/02/06 09:47:26;;;;;;;3.35;2.22;;;;;;;31.84;20.16;97548.88;4999810;28;20033;-71
2024/02/06 09:49:52;;;;;;;3.15;2.15;;;;;;;31.94;20.20;97535.31;5003353;28;20121;-69
2024/02/06 09:52:19;;;;;;;8.18;5.15;;;;;;;31.89;20.18;97538.78;5009405;28;20116;-71
2024/02/06 09:54:48;;;;;;;21.10;13.07;;;;;;;31.83;20.31;97536.94;5007196;28;20386;-70
2024/02/06 09:57:20;;;;;;;8.77;4.32;;;;;;;31.80;19.94;97531.88;4996688;28;20509;-71
2024/02/06 09:59:51;;;;;;;4.03;2.58;;;;;;;31.72;19.92;97528.56;5012443;28;20108;-69
2024/02/06 10:02:18;;;;;;;8.13;2.60;;;;;;;31.37;20.19;97519.94;5004212;28;20045;-70
2024/02/06 10:04:44;;;;;;;2.85;2.17;;;;;;;31.12;20.12;97517.16;4991369;28;20021;-70
2024/02/06 10:07:11;;;;;;;9.40;3.85;;;;;;;32.35;20.28;97510.56;5004687;28;20022;-70
2024/02/06 10:09:37;;;;;;;4.80;3.13;;;;;;;32.14;19.98;97506.38;5010814;28;20025;-71
2024/02/06 10:12:03;;;;;;;6.40;3.28;;;;;;;31.11;20.27;97494.19;5008593;28;20037;-74
2024/02/06 10:14:29;;;;;;;5.90;2.00;;;;;;;31.10;19.82;97486.16;5013870;28;20030;-71
2024/02/06 10:16:54;;;;;;;27.80;16.27;;;;;;;31.55;19.86;97476.59;4978238;28;20072;-73
2024/02/06 10:19:33;;;;;;;6.25;2.13;;;;;;;32.22;19.18;97481.13;5002579;28;20025;-70
2024/02/06 10:22:00;;;;;;;3.72;2.55;;;;;;;31.91;19.95;97467.44;4996839;28;20017;-73
2024/02/06 10:24:28;;;;;;;6.68;3.47;;;;;;;31.42;19.85;97454.56;5005659;28;20445;-72
2024/02/06 10:27:02;;;;;;;4.15;2.60;;;;;;;30.86;20.58;97467.59;4995308;28;20033;-70
2024/02/06 10:29:28;;;;;;;11.23;3.58;;;;;;;31.66;20.12;97463.91;4981297;28;20041;-72
2024/02/06 10:31:58;;;;;;;5.53;3.70;;;;;;;31.84;19.76;97471.38;4994910;28;20022;-72
2024/02/06 10:34:26;;;;;;;10.27;2.75;;;;;;;31.50;19.66;97462.56;5006430;28;20485;-71
2024/02/06 10:37:01;;;;;;;5.50;2.78;;;;;;;31.32;20.11;97453.38;5001324;28;20026;-73
2024/02/06 10:39:28;;;;;;;3.83;2.10;;;;;;;31.51;19.78;97442.16;5010646;28;20494;-71
2024/02/06 10:42:01;;;;;;;3.38;2.05;;;;;;;29.98;20.56;97445.41;4979617;28;20018;-70
2024/02/06 10:44:28;;;;;;;6.00;2.20;;;;;;;30.76;20.24;97439.63;4979026;28;20045;-71
2024/02/06 10:47:00;;;;;;;3.47;2.22;;;;;;;30.04;20.81;97436.25;4985873;28;20441;-70
2024/02/06 10:49:26;;;;;;;4.68;1.98;;;;;;;31.23;20.20;97424.34;5011082;28;20033;-70
2024/02/06 10:52:01;;;;;;;14.98;2.45;;;;;;;32.12;19.99;97422.69;4988789;28;20039;-69
2024/02/06 10:54:27;;;;;;;4.15;2.30;;;;;;;31.97;20.02;97421.38;4988868;28;20412;-70
2024/02/06 10:57:06;;;;;;;4.10;1.92;;;;;;;32.28;19.38;97406.47;5008524;28;20117;-71
2024/02/06 10:59:52;;;;;;;2.58;1.65;;;;;;;32.07;19.53;97407.84;5019788;28;20410;-71
2024/02/06 11:02:28;;;;;;;3.08;2.17;;;;;;;32.20;19.55;97391.06;5006626;28;20091;-70
2024/02/06 11:05:11;;;;;;;7.68;2.63;;;;;;;32.90;18.91;97380.16;5003775;28;20030;-70
2024/02/06 11:07:48;;;;;;;5.43;2.33;;;;;;;32.71;19.63;97382.19;5015728;28;20029;-71
2024/02/06 11:10:17;;;;;;;4.53;2.63;;;;;;;32.06;19.13;97381.25;5012743;28;20028;-69
2024/02/06 11:12:45;;;;;;;5.28;2.10;;;;;;;31.90;18.93;97370.81;5011960;28;20025;-70
2024/02/06 11:15:11;;;;;;;5.30;2.72;;;;;;;32.22;19.11;97364.81;4994361;28;20044;-69
2024/02/06 11:17:38;;;;;;;7.45;3.10;;;;;;;31.97;19.56;97372.41;5001556;28;20029;-70
2024/02/06 11:20:10;;;;;;;5.78;2.20;;;;;;;32.17;18.92;97366.63;4997544;28;20025;-70
2024/02/06 11:22:44;;;;;;;2.72;1.70;;;;;;;32.23;18.92;97365.66;5007683;28;20430;-70